sensor_id;sensor_type;location;lat;lon;timestamp;P1;durP1;ratioP1;P2;durP2;ratioP2
55800;SDS011;41730;51.960;20.158;2023-08-12T00:02:02;6.30;;;4.90;;
55800;SDS011;41730;51.960;20.158;2023-08-12T00:04:34;8.00;;;5.10;;
55800;SDS011;41730;51.960;20.158;2023-08-12T00:07:06;8.50;;;5.00;;
55800;SDS011;41730;51.960;20.158;2023-08-12T00:09:38;9.40;;;4.80;;
55800;SDS011;41730;51.960;20.158;2023-08-12T00:12:10;6.90;;;4.80;;
55800;SDS011;41730;51.960;20.158;2023-08-12T00:14:42;8.00;;;5.10;;
55800;SDS011;41730;51.960;20.158;2023-08-12T00:17:13;8.50;;;5.20;;
55800;SDS011;41730;51.960;20.158;2023-08-12T00:19:46;10.60;;;5.50;;
55800;SDS011;41730;51.960;20.158;2023-08-12T00:22:18;8.10;;;4.90;;
55800;SDS011;41730;51.960;20.158;2023-08-12T00:24:50;10.30;;;5.30;;
55800;SDS011;41730;51.960;20.158;2023-08-12T00:27:22;10.40;;;5.20;;
55800;SDS011;41730;51.960;20.158;2023-08-12T00:29:54;10.20;;;5.20;;
55800;SDS011;41730;51.960;20.158;2023-08-12T00:32:26;8.70;;;5.20;;
55800;SDS011;41730;51.960;20.158;2023-08-12T00:34:58;7.90;;;5.30;;
55800;SDS011;41730;51.960;20.158;2023-08-12T00:37:31;9.10;;;5.00;;
55800;SDS011;41730;51.960;20.158;2023-08-12T00:40:03;7.40;;;4.90;;
55800;SDS011;41730;51.960;20.158;2023-08-12T00:42:36;8.60;;;4.80;;
55800;SDS011;41730;51.960;20.158;2023-08-12T00:45:10;7.60;;;5.60;;
55800;SDS011;41730;51.960;20.158;2023-08-12T00:47:41;11.00;;;5.10;;
55800;SDS011;41730;51.960;20.158;2023-08-12T00:50:14;8.20;;;5.20;;
55800;SDS011;41730;51.960;20.158;2023-08-12T00:52:46;8.80;;;4.70;;
55800;SDS011;41730;51.960;20.158;2023-08-12T00:55:19;6.80;;;4.80;;
55800;SDS011;41730;51.960;20.158;2023-08-12T00:57:52;6.70;;;4.60;;
55800;SDS011;41730;51.960;20.158;2023-08-12T01:00:24;10.10;;;5.10;;
55800;SDS011;41730;51.960;20.158;2023-08-12T01:02:56;7.10;;;4.30;;
55800;SDS011;41730;51.960;20.158;2023-08-12T01:05:29;7.80;;;4.30;;
55800;SDS011;41730;51.960;20.158;2023-08-12T01:08:01;7.50;;;4.70;;
55800;SDS011;41730;51.960;20.158;2023-08-12T01:10:34;7.00;;;4.60;;
55800;SDS011;41730;51.960;20.158;2023-08-12T01:13:13;6.80;;;4.40;;
55800;SDS011;41730;51.960;20.158;2023-08-12T01:15:53;7.50;;;4.70;;
55800;SDS011;41730;51.960;20.158;2023-08-12T01:18:28;7.50;;;5.20;;
55800;SDS011;41730;51.960;20.158;2023-08-12T01:21:01;7.30;;;4.90;;
55800;SDS011;41730;51.960;20.158;2023-08-12T01:23:34;8.90;;;5.20;;
55800;SDS011;41730;51.960;20.158;2023-08-12T01:26:07;7.30;;;4.50;;
55800;SDS011;41730;51.960;20.158;2023-08-12T01:28:39;7.10;;;4.70;;
55800;SDS011;41730;51.960;20.158;2023-08-12T01:31:11;9.70;;;5.30;;
55800;SDS011;41730;51.960;20.158;2023-08-12T01:33:49;8.60;;;4.90;;
55800;SDS011;41730;51.960;20.158;2023-08-12T01:36:25;8.40;;;5.40;;
55800;SDS011;41730;51.960;20.158;2023-08-12T01:39:01;9.30;;;5.80;;
55800;SDS011;41730;51.960;20.158;2023-08-12T01:41:34;7.20;;;4.50;;
55800;SDS011;41730;51.960;20.158;2023-08-12T01:44:06;7.40;;;4.80;;
55800;SDS011;41730;51.960;20.158;2023-08-12T01:46:38;7.20;;;4.70;;
55800;SDS011;41730;51.960;20.158;2023-08-12T01:49:11;9.40;;;5.00;;
55800;SDS011;41730;51.960;20.158;2023-08-12T01:51:43;9.70;;;5.50;;
55800;SDS011;41730;51.960;20.158;2023-08-12T01:54:16;8.00;;;4.80;;
55800;SDS011;41730;51.960;20.158;2023-08-12T01:56:50;9.00;;;4.90;;
55800;SDS011;41730;51.960;20.158;2023-08-12T01:59:22;8.10;;;4.70;;
55800;SDS011;41730;51.960;20.158;2023-08-12T02:01:54;7.70;;;4.90;;
55800;SDS011;41730;51.960;20.158;2023-08-12T02:04:25;7.60;;;4.70;;
55800;SDS011;41730;51.960;20.158;2023-08-12T02:06:57;7.60;;;4.40;;
55800;SDS011;41730;51.960;20.158;2023-08-12T02:09:29;7.90;;;4.50;;
55800;SDS011;41730;51.960;20.158;2023-08-12T02:12:00;6.60;;;4.80;;
55800;SDS011;41730;51.960;20.158;2023-08-12T02:14:32;9.30;;;5.00;;
55800;SDS011;41730;51.960;20.158;2023-08-12T02:17:05;8.70;;;4.80;;
55800;SDS011;41730;51.960;20.158;2023-08-12T02:19:37;7.20;;;4.90;;
55800;SDS011;41730;51.960;20.158;2023-08-12T02:22:09;9.80;;;5.20;;
55800;SDS011;41730;51.960;20.158;2023-08-12T02:24:42;9.00;;;4.90;;
55800;SDS011;41730;51.960;20.158;2023-08-12T02:27:14;9.20;;;5.10;;
55800;SDS011;41730;51.960;20.158;2023-08-12T02:29:45;7.90;;;5.30;;
55800;SDS011;41730;51.960;20.158;2023-08-12T02:32:17;11.00;;;5.30;;
55800;SDS011;41730;51.960;20.158;2023-08-12T02:34:48;10.90;;;4.90;;
55800;SDS011;41730;51.960;20.158;2023-08-12T02:37:20;8.30;;;5.90;;
55800;SDS011;41730;51.960;20.158;2023-08-12T02:39:51;8.10;;;4.90;;
55800;SDS011;41730;51.960;20.158;2023-08-12T02:42:23;8.10;;;5.50;;
55800;SDS011;41730;51.960;20.158;2023-08-12T02:44:55;7.50;;;4.70;;
55800;SDS011;41730;51.960;20.158;2023-08-12T02:47:28;6.70;;;4.90;;
55800;SDS011;41730;51.960;20.158;2023-08-12T02:50:00;9.00;;;4.80;;
55800;SDS011;41730;51.960;20.158;2023-08-12T02:52:32;6.00;;;5.00;;
55800;SDS011;41730;51.960;20.158;2023-08-12T02:55:05;9.00;;;5.10;;
55800;SDS011;41730;51.960;20.158;2023-08-12T02:57:37;7.30;;;5.00;;
55800;SDS011;41730;51.960;20.158;2023-08-12T03:00:11;10.40;;;5.20;;
55800;SDS011;41730;51.960;20.158;2023-08-12T03:02:44;9.70;;;5.30;;
55800;SDS011;41730;51.960;20.158;2023-08-12T03:05:16;9.70;;;5.60;;
55800;SDS011;41730;51.960;20.158;2023-08-12T03:07:48;7.50;;;5.20;;
55800;SDS011;41730;51.960;20.158;2023-08-12T03:10:21;8.00;;;5.30;;
55800;SDS011;41730;51.960;20.158;2023-08-12T03:12:53;9.30;;;5.30;;
55800;SDS011;41730;51.960;20.158;2023-08-12T03:15:24;9.90;;;5.00;;
55800;SDS011;41730;51.960;20.158;2023-08-12T03:17:57;8.80;;;4.90;;
55800;SDS011;41730;51.960;20.158;2023-08-12T03:20:29;9.40;;;4.60;;
55800;SDS011;41730;51.960;20.158;2023-08-12T03:23:00;7.10;;;5.00;;
55800;SDS011;41730;51.960;20.158;2023-08-12T03:25:32;7.70;;;4.80;;
55800;SDS011;41730;51.960;20.158;2023-08-12T03:28:05;9.40;;;5.30;;
55800;SDS011;41730;51.960;20.158;2023-08-12T03:30:38;6.80;;;4.60;;
55800;SDS011;41730;51.960;20.158;2023-08-12T03:33:14;8.40;;;4.50;;
55800;SDS011;41730;51.960;20.158;2023-08-12T03:35:50;7.50;;;4.80;;
55800;SDS011;41730;51.960;20.158;2023-08-12T03:38:21;7.40;;;5.00;;
55800;SDS011;41730;51.960;20.158;2023-08-12T03:40:53;8.50;;;4.60;;
55800;SDS011;41730;51.960;20.158;2023-08-12T03:43:26;10.00;;;5.30;;
55800;SDS011;41730;51.960;20.158;2023-08-12T03:45:58;8.60;;;4.70;;
55800;SDS011;41730;51.960;20.158;2023-08-12T03:48:32;9.40;;;5.00;;
55800;SDS011;41730;51.960;20.158;2023-08-12T03:51:04;8.40;;;5.40;;
55800;SDS011;41730;51.960;20.158;2023-08-12T03:53:35;8.60;;;5.00;;
55800;SDS011;41730;51.960;20.158;2023-08-12T03:56:07;7.00;;;4.20;;
55800;SDS011;41730;51.960;20.158;2023-08-12T03:58:43;6.40;;;4.40;;
55800;SDS011;41730;51.960;20.158;2023-08-12T04:01:15;6.90;;;4.50;;
55800;SDS011;41730;51.960;20.158;2023-08-12T04:03:47;10.30;;;4.80;;
55800;SDS011;41730;51.960;20.158;2023-08-12T04:06:19;9.60;;;4.40;;
55800;SDS011;41730;51.960;20.158;2023-08-12T04:08:50;6.00;;;3.90;;
55800;SDS011;41730;51.960;20.158;2023-08-12T04:11:23;7.80;;;4.10;;
55800;SDS011;41730;51.960;20.158;2023-08-12T04:13:54;7.80;;;4.00;;
55800;SDS011;41730;51.960;20.158;2023-08-12T04:16:26;6.40;;;4.10;;
55800;SDS011;41730;51.960;20.158;2023-08-12T04:18:58;6.90;;;3.90;;
55800;SDS011;41730;51.960;20.158;2023-08-12T04:21:30;6.70;;;4.30;;
55800;SDS011;41730;51.960;20.158;2023-08-12T04:24:02;8.10;;;4.20;;
55800;SDS011;41730;51.960;20.158;2023-08-12T04:26:35;8.10;;;3.80;;
55800;SDS011;41730;51.960;20.158;2023-08-12T04:29:08;9.10;;;4.20;;
55800;SDS011;41730;51.960;20.158;2023-08-12T04:31:39;6.30;;;3.40;;
55800;SDS011;41730;51.960;20.158;2023-08-12T04:34:11;5.20;;;3.30;;
55800;SDS011;41730;51.960;20.158;2023-08-12T04:36:43;9.90;;;3.30;;
55800;SDS011;41730;51.960;20.158;2023-08-12T04:39:15;8.50;;;3.50;;
55800;SDS011;41730;51.960;20.158;2023-08-12T04:41:47;6.60;;;3.50;;
55800;SDS011;41730;51.960;20.158;2023-08-12T04:44:18;7.00;;;3.70;;
55800;SDS011;41730;51.960;20.158;2023-08-12T04:46:50;7.70;;;3.40;;
55800;SDS011;41730;51.960;20.158;2023-08-12T04:49:22;6.60;;;3.20;;
55800;SDS011;41730;51.960;20.158;2023-08-12T04:51:55;6.90;;;3.70;;
55800;SDS011;41730;51.960;20.158;2023-08-12T04:54:27;5.90;;;3.20;;
55800;SDS011;41730;51.960;20.158;2023-08-12T04:56:58;5.60;;;3.20;;
55800;SDS011;41730;51.960;20.158;2023-08-12T04:59:30;6.40;;;3.80;;
55800;SDS011;41730;51.960;20.158;2023-08-12T05:02:02;7.40;;;3.70;;
55800;SDS011;41730;51.960;20.158;2023-08-12T05:04:34;5.80;;;3.40;;
55800;SDS011;41730;51.960;20.158;2023-08-12T05:07:06;6.30;;;3.70;;
55800;SDS011;41730;51.960;20.158;2023-08-12T05:09:39;8.00;;;3.50;;
55800;SDS011;41730;51.960;20.158;2023-08-12T05:14:42;7.30;;;3.50;;
55800;SDS011;41730;51.960;20.158;2023-08-12T05:17:13;6.70;;;3.60;;
55800;SDS011;41730;51.960;20.158;2023-08-12T05:19:45;6.00;;;3.40;;
55800;SDS011;41730;51.960;20.158;2023-08-12T05:22:16;5.10;;;3.20;;
55800;SDS011;41730;51.960;20.158;2023-08-12T05:24:49;6.30;;;3.50;;
55800;SDS011;41730;51.960;20.158;2023-08-12T05:27:21;6.30;;;3.10;;
55800;SDS011;41730;51.960;20.158;2023-08-12T05:29:53;6.80;;;3.20;;
55800;SDS011;41730;51.960;20.158;2023-08-12T05:32:25;6.30;;;3.40;;
55800;SDS011;41730;51.960;20.158;2023-08-12T05:35:00;5.40;;;3.30;;
55800;SDS011;41730;51.960;20.158;2023-08-12T05:37:32;7.20;;;3.40;;
55800;SDS011;41730;51.960;20.158;2023-08-12T05:40:06;6.50;;;2.50;;
55800;SDS011;41730;51.960;20.158;2023-08-12T05:42:39;6.80;;;2.60;;
55800;SDS011;41730;51.960;20.158;2023-08-12T05:45:12;6.40;;;2.40;;
55800;SDS011;41730;51.960;20.158;2023-08-12T05:47:43;6.60;;;2.90;;
55800;SDS011;41730;51.960;20.158;2023-08-12T05:50:15;5.30;;;2.20;;
55800;SDS011;41730;51.960;20.158;2023-08-12T05:52:47;3.60;;;2.30;;
55800;SDS011;41730;51.960;20.158;2023-08-12T05:55:19;6.70;;;2.30;;
55800;SDS011;41730;51.960;20.158;2023-08-12T05:57:51;4.80;;;2.40;;
55800;SDS011;41730;51.960;20.158;2023-08-12T06:00:23;3.70;;;2.20;;
55800;SDS011;41730;51.960;20.158;2023-08-12T06:02:55;3.80;;;1.70;;
55800;SDS011;41730;51.960;20.158;2023-08-12T06:05:27;3.90;;;1.70;;
55800;SDS011;41730;51.960;20.158;2023-08-12T06:07:59;4.60;;;2.20;;
55800;SDS011;41730;51.960;20.158;2023-08-12T06:10:32;4.70;;;2.20;;
55800;SDS011;41730;51.960;20.158;2023-08-12T06:13:07;4.60;;;2.00;;
55800;SDS011;41730;51.960;20.158;2023-08-12T06:15:39;5.80;;;1.80;;
55800;SDS011;41730;51.960;20.158;2023-08-12T06:18:11;3.20;;;1.60;;
55800;SDS011;41730;51.960;20.158;2023-08-12T06:20:43;3.60;;;1.70;;
55800;SDS011;41730;51.960;20.158;2023-08-12T06:23:15;3.70;;;1.90;;
55800;SDS011;41730;51.960;20.158;2023-08-12T06:25:46;4.90;;;1.90;;
55800;SDS011;41730;51.960;20.158;2023-08-12T06:28:18;5.70;;;2.00;;
55800;SDS011;41730;51.960;20.158;2023-08-12T06:30:49;4.00;;;1.80;;
55800;SDS011;41730;51.960;20.158;2023-08-12T06:33:21;6.00;;;1.60;;
55800;SDS011;41730;51.960;20.158;2023-08-12T06:35:53;3.90;;;1.90;;
55800;SDS011;41730;51.960;20.158;2023-08-12T06:38:25;3.00;;;1.50;;
55800;SDS011;41730;51.960;20.158;2023-08-12T06:40:57;4.80;;;1.60;;
55800;SDS011;41730;51.960;20.158;2023-08-12T06:43:29;2.70;;;1.50;;
55800;SDS011;41730;51.960;20.158;2023-08-12T06:46:00;4.50;;;2.10;;
55800;SDS011;41730;51.960;20.158;2023-08-12T06:48:37;3.30;;;1.70;;
55800;SDS011;41730;51.960;20.158;2023-08-12T06:51:08;5.50;;;2.00;;
55800;SDS011;41730;51.960;20.158;2023-08-12T06:53:40;4.80;;;1.80;;
55800;SDS011;41730;51.960;20.158;2023-08-12T06:56:12;4.30;;;1.80;;
55800;SDS011;41730;51.960;20.158;2023-08-12T06:58:43;6.20;;;1.90;;
55800;SDS011;41730;51.960;20.158;2023-08-12T07:01:15;5.40;;;1.90;;
55800;SDS011;41730;51.960;20.158;2023-08-12T07:03:47;4.70;;;1.50;;
55800;SDS011;41730;51.960;20.158;2023-08-12T07:06:19;4.40;;;1.90;;
55800;SDS011;41730;51.960;20.158;2023-08-12T07:08:51;3.70;;;1.50;;
55800;SDS011;41730;51.960;20.158;2023-08-12T07:11:24;5.80;;;1.50;;
55800;SDS011;41730;51.960;20.158;2023-08-12T07:13:56;3.20;;;1.60;;
55800;SDS011;41730;51.960;20.158;2023-08-12T07:16:28;4.50;;;1.70;;
55800;SDS011;41730;51.960;20.158;2023-08-12T07:19:00;4.60;;;1.50;;
55800;SDS011;41730;51.960;20.158;2023-08-12T07:21:32;3.80;;;1.50;;
55800;SDS011;41730;51.960;20.158;2023-08-12T07:24:04;2.80;;;1.20;;
55800;SDS011;41730;51.960;20.158;2023-08-12T07:26:40;3.80;;;1.30;;
55800;SDS011;41730;51.960;20.158;2023-08-12T07:29:11;3.70;;;1.40;;
55800;SDS011;41730;51.960;20.158;2023-08-12T07:31:43;3.70;;;1.40;;
55800;SDS011;41730;51.960;20.158;2023-08-12T07:34:16;3.20;;;1.30;;
55800;SDS011;41730;51.960;20.158;2023-08-12T07:36:52;3.80;;;1.20;;
55800;SDS011;41730;51.960;20.158;2023-08-12T07:39:24;3.90;;;1.40;;
55800;SDS011;41730;51.960;20.158;2023-08-12T07:41:55;3.00;;;1.40;;
55800;SDS011;41730;51.960;20.158;2023-08-12T07:44:27;5.80;;;1.20;;
55800;SDS011;41730;51.960;20.158;2023-08-12T07:46:59;3.60;;;1.60;;
55800;SDS011;41730;51.960;20.158;2023-08-12T07:49:30;4.80;;;1.70;;
55800;SDS011;41730;51.960;20.158;2023-08-12T07:52:02;3.80;;;1.50;;
55800;SDS011;41730;51.960;20.158;2023-08-12T07:54:37;11.20;;;2.50;;
55800;SDS011;41730;51.960;20.158;2023-08-12T07:57:08;4.10;;;1.40;;
55800;SDS011;41730;51.960;20.158;2023-08-12T07:59:40;4.90;;;1.50;;
55800;SDS011;41730;51.960;20.158;2023-08-12T08:02:12;4.10;;;1.50;;
55800;SDS011;41730;51.960;20.158;2023-08-12T08:04:44;4.80;;;1.50;;
55800;SDS011;41730;51.960;20.158;2023-08-12T08:07:17;3.10;;;1.30;;
55800;SDS011;41730;51.960;20.158;2023-08-12T08:09:50;2.90;;;1.40;;
55800;SDS011;41730;51.960;20.158;2023-08-12T08:12:22;3.50;;;1.40;;
55800;SDS011;41730;51.960;20.158;2023-08-12T08:14:54;3.40;;;1.30;;
55800;SDS011;41730;51.960;20.158;2023-08-12T08:17:26;4.30;;;1.30;;
55800;SDS011;41730;51.960;20.158;2023-08-12T08:19:58;5.10;;;1.40;;
55800;SDS011;41730;51.960;20.158;2023-08-12T08:22:30;4.30;;;1.30;;
55800;SDS011;41730;51.960;20.158;2023-08-12T08:25:02;3.10;;;1.20;;
55800;SDS011;41730;51.960;20.158;2023-08-12T08:27:35;4.00;;;1.20;;
55800;SDS011;41730;51.960;20.158;2023-08-12T08:30:12;2.50;;;1.10;;
55800;SDS011;41730;51.960;20.158;2023-08-12T08:32:47;3.50;;;1.40;;
55800;SDS011;41730;51.960;20.158;2023-08-12T08:35:19;3.20;;;1.40;;
55800;SDS011;41730;51.960;20.158;2023-08-12T08:37:51;2.40;;;1.20;;
55800;SDS011;41730;51.960;20.158;2023-08-12T08:40:23;3.30;;;1.20;;
55800;SDS011;41730;51.960;20.158;2023-08-12T08:42:55;6.70;;;1.10;;
55800;SDS011;41730;51.960;20.158;2023-08-12T08:45:33;6.00;;;1.10;;
55800;SDS011;41730;51.960;20.158;2023-08-12T08:48:07;6.50;;;1.40;;
55800;SDS011;41730;51.960;20.158;2023-08-12T08:50:39;5.00;;;1.60;;
55800;SDS011;41730;51.960;20.158;2023-08-12T08:53:14;4.20;;;1.50;;
55800;SDS011;41730;51.960;20.158;2023-08-12T08:55:48;3.20;;;1.50;;
55800;SDS011;41730;51.960;20.158;2023-08-12T08:58:28;4.40;;;1.60;;
55800;SDS011;41730;51.960;20.158;2023-08-12T09:01:01;6.40;;;1.80;;
55800;SDS011;41730;51.960;20.158;2023-08-12T09:03:37;3.30;;;1.40;;
55800;SDS011;41730;51.960;20.158;2023-08-12T09:06:10;4.40;;;1.30;;
55800;SDS011;41730;51.960;20.158;2023-08-12T09:08:43;3.60;;;1.30;;
55800;SDS011;41730;51.960;20.158;2023-08-12T09:11:18;2.20;;;1.20;;
55800;SDS011;41730;51.960;20.158;2023-08-12T09:13:52;6.40;;;1.70;;
55800;SDS011;41730;51.960;20.158;2023-08-12T09:16:24;4.50;;;1.50;;
55800;SDS011;41730;51.960;20.158;2023-08-12T09:18:57;3.60;;;1.50;;
55800;SDS011;41730;51.960;20.158;2023-08-12T09:21:32;3.20;;;1.60;;
55800;SDS011;41730;51.960;20.158;2023-08-12T09:24:07;5.80;;;1.70;;
55800;SDS011;41730;51.960;20.158;2023-08-12T09:26:39;4.30;;;1.50;;
55800;SDS011;41730;51.960;20.158;2023-08-12T09:29:14;3.30;;;1.50;;
55800;SDS011;41730;51.960;20.158;2023-08-12T09:31:46;3.40;;;1.40;;
55800;SDS011;41730;51.960;20.158;2023-08-12T09:34:19;4.50;;;1.40;;
55800;SDS011;41730;51.960;20.158;2023-08-12T09:36:53;3.40;;;1.40;;
55800;SDS011;41730;51.960;20.158;2023-08-12T09:39:25;2.90;;;1.20;;
55800;SDS011;41730;51.960;20.158;2023-08-12T09:41:59;3.40;;;1.40;;
55800;SDS011;41730;51.960;20.158;2023-08-12T09:44:34;3.90;;;1.40;;
55800;SDS011;41730;51.960;20.158;2023-08-12T09:47:07;3.80;;;1.80;;
55800;SDS011;41730;51.960;20.158;2023-08-12T09:49:40;4.20;;;1.70;;
55800;SDS011;41730;51.960;20.158;2023-08-12T09:52:12;4.80;;;1.70;;
55800;SDS011;41730;51.960;20.158;2023-08-12T09:54:44;5.10;;;1.90;;
55800;SDS011;41730;51.960;20.158;2023-08-12T09:57:17;3.20;;;1.60;;
55800;SDS011;41730;51.960;20.158;2023-08-12T09:59:51;7.00;;;1.50;;
55800;SDS011;41730;51.960;20.158;2023-08-12T10:02:27;4.60;;;1.50;;
55800;SDS011;41730;51.960;20.158;2023-08-12T10:05:00;3.60;;;1.40;;
55800;SDS011;41730;51.960;20.158;2023-08-12T10:07:33;3.50;;;1.70;;
55800;SDS011;41730;51.960;20.158;2023-08-12T10:10:06;5.00;;;1.40;;
55800;SDS011;41730;51.960;20.158;2023-08-12T10:12:38;2.00;;;1.30;;
55800;SDS011;41730;51.960;20.158;2023-08-12T10:15:10;4.90;;;1.30;;
55800;SDS011;41730;51.960;20.158;2023-08-12T10:17:42;5.50;;;1.60;;
55800;SDS011;41730;51.960;20.158;2023-08-12T10:20:21;3.10;;;1.50;;
55800;SDS011;41730;51.960;20.158;2023-08-12T10:22:54;4.10;;;1.30;;
55800;SDS011;41730;51.960;20.158;2023-08-12T10:25:31;3.70;;;1.40;;
55800;SDS011;41730;51.960;20.158;2023-08-12T10:28:04;4.00;;;1.40;;
55800;SDS011;41730;51.960;20.158;2023-08-12T10:30:36;2.90;;;1.40;;
55800;SDS011;41730;51.960;20.158;2023-08-12T10:33:09;2.80;;;1.20;;
55800;SDS011;41730;51.960;20.158;2023-08-12T10:35:45;2.40;;;1.30;;
55800;SDS011;41730;51.960;20.158;2023-08-12T10:40:50;2.00;;;1.20;;
55800;SDS011;41730;51.960;20.158;2023-08-12T10:43:22;4.00;;;1.40;;
55800;SDS011;41730;51.960;20.158;2023-08-12T10:46:22;3.30;;;1.30;;
55800;SDS011;41730;51.960;20.158;2023-08-12T10:49:01;3.80;;;1.40;;
55800;SDS011;41730;51.960;20.158;2023-08-12T10:51:43;3.50;;;1.40;;
55800;SDS011;41730;51.960;20.158;2023-08-12T10:54:18;3.40;;;1.30;;
55800;SDS011;41730;51.960;20.158;2023-08-12T10:57:10;3.10;;;1.60;;
55800;SDS011;41730;51.960;20.158;2023-08-12T10:59:52;4.30;;;1.40;;
55800;SDS011;41730;51.960;20.158;2023-08-12T11:02:30;5.90;;;1.30;;
55800;SDS011;41730;51.960;20.158;2023-08-12T11:05:02;3.00;;;1.30;;
55800;SDS011;41730;51.960;20.158;2023-08-12T11:07:39;3.60;;;1.30;;
55800;SDS011;41730;51.960;20.158;2023-08-12T11:10:13;4.80;;;1.60;;
55800;SDS011;41730;51.960;20.158;2023-08-12T11:12:55;3.50;;;1.30;;
55800;SDS011;41730;51.960;20.158;2023-08-12T11:15:32;3.80;;;1.40;;
55800;SDS011;41730;51.960;20.158;2023-08-12T11:18:07;2.30;;;1.40;;
55800;SDS011;41730;51.960;20.158;2023-08-12T11:20:40;2.90;;;1.20;;
55800;SDS011;41730;51.960;20.158;2023-08-12T11:23:12;3.90;;;1.40;;
55800;SDS011;41730;51.960;20.158;2023-08-12T11:25:44;2.50;;;1.10;;
55800;SDS011;41730;51.960;20.158;2023-08-12T11:28:18;2.30;;;1.10;;
55800;SDS011;41730;51.960;20.158;2023-08-12T11:30:50;3.40;;;1.30;;
55800;SDS011;41730;51.960;20.158;2023-08-12T11:33:22;2.20;;;1.20;;
55800;SDS011;41730;51.960;20.158;2023-08-12T11:35:56;3.80;;;1.40;;
55800;SDS011;41730;51.960;20.158;2023-08-12T11:38:30;2.80;;;1.30;;
55800;SDS011;41730;51.960;20.158;2023-08-12T11:41:02;2.40;;;1.10;;
55800;SDS011;41730;51.960;20.158;2023-08-12T11:43:35;4.20;;;1.20;;
55800;SDS011;41730;51.960;20.158;2023-08-12T11:46:06;3.40;;;1.30;;
55800;SDS011;41730;51.960;20.158;2023-08-12T11:48:38;3.00;;;1.20;;
55800;SDS011;41730;51.960;20.158;2023-08-12T11:51:11;2.70;;;1.10;;
55800;SDS011;41730;51.960;20.158;2023-08-12T11:53:43;2.70;;;1.00;;
55800;SDS011;41730;51.960;20.158;2023-08-12T11:56:16;2.90;;;1.30;;
55800;SDS011;41730;51.960;20.158;2023-08-12T11:58:49;2.30;;;1.20;;
55800;SDS011;41730;51.960;20.158;2023-08-12T12:01:22;3.60;;;1.20;;
55800;SDS011;41730;51.960;20.158;2023-08-12T12:03:54;4.40;;;1.20;;
55800;SDS011;41730;51.960;20.158;2023-08-12T12:06:30;2.70;;;1.20;;
55800;SDS011;41730;51.960;20.158;2023-08-12T12:09:06;2.90;;;1.00;;
55800;SDS011;41730;51.960;20.158;2023-08-12T12:11:38;3.70;;;1.40;;
55800;SDS011;41730;51.960;20.158;2023-08-12T12:14:11;3.00;;;1.00;;
55800;SDS011;41730;51.960;20.158;2023-08-12T12:16:43;2.40;;;1.10;;
55800;SDS011;41730;51.960;20.158;2023-08-12T12:19:16;4.80;;;1.60;;
55800;SDS011;41730;51.960;20.158;2023-08-12T12:21:50;2.30;;;1.10;;
55800;SDS011;41730;51.960;20.158;2023-08-12T12:24:22;2.60;;;1.30;;
55800;SDS011;41730;51.960;20.158;2023-08-12T12:27:00;3.00;;;1.20;;
55800;SDS011;41730;51.960;20.158;2023-08-12T12:29:33;2.70;;;1.20;;
55800;SDS011;41730;51.960;20.158;2023-08-12T12:32:05;3.90;;;1.40;;
55800;SDS011;41730;51.960;20.158;2023-08-12T12:34:37;2.70;;;1.30;;
55800;SDS011;41730;51.960;20.158;2023-08-12T12:37:09;3.10;;;1.20;;
55800;SDS011;41730;51.960;20.158;2023-08-12T12:39:42;2.50;;;1.10;;
55800;SDS011;41730;51.960;20.158;2023-08-12T12:42:14;3.70;;;1.30;;
55800;SDS011;41730;51.960;20.158;2023-08-12T12:44:45;1.90;;;1.20;;
55800;SDS011;41730;51.960;20.158;2023-08-12T12:47:17;3.80;;;1.20;;
55800;SDS011;41730;51.960;20.158;2023-08-12T12:49:49;5.30;;;1.30;;
55800;SDS011;41730;51.960;20.158;2023-08-12T12:52:21;2.70;;;1.30;;
55800;SDS011;41730;51.960;20.158;2023-08-12T12:54:53;2.50;;;1.30;;
55800;SDS011;41730;51.960;20.158;2023-08-12T12:57:25;4.00;;;1.20;;
55800;SDS011;41730;51.960;20.158;2023-08-12T12:59:57;3.80;;;1.40;;
55800;SDS011;41730;51.960;20.158;2023-08-12T13:02:29;5.70;;;1.30;;
55800;SDS011;41730;51.960;20.158;2023-08-12T13:05:01;3.30;;;1.10;;
55800;SDS011;41730;51.960;20.158;2023-08-12T13:07:32;5.10;;;1.60;;
55800;SDS011;41730;51.960;20.158;2023-08-12T13:10:05;3.10;;;1.40;;
55800;SDS011;41730;51.960;20.158;2023-08-12T13:12:38;5.20;;;1.40;;
55800;SDS011;41730;51.960;20.158;2023-08-12T13:15:10;3.30;;;1.20;;
55800;SDS011;41730;51.960;20.158;2023-08-12T13:17:41;2.40;;;1.20;;
55800;SDS011;41730;51.960;20.158;2023-08-12T13:20:13;6.80;;;1.50;;
55800;SDS011;41730;51.960;20.158;2023-08-12T13:22:45;4.10;;;1.60;;
55800;SDS011;41730;51.960;20.158;2023-08-12T13:25:16;13.20;;;9.60;;
55800;SDS011;41730;51.960;20.158;2023-08-12T13:27:48;16.40;;;11.00;;
55800;SDS011;41730;51.960;20.158;2023-08-12T13:30:20;7.40;;;4.00;;
55800;SDS011;41730;51.960;20.158;2023-08-12T13:32:52;5.20;;;1.80;;
55800;SDS011;41730;51.960;20.158;2023-08-12T13:35:27;3.60;;;1.60;;
55800;SDS011;41730;51.960;20.158;2023-08-12T13:37:59;3.70;;;1.40;;
55800;SDS011;41730;51.960;20.158;2023-08-12T13:40:31;4.60;;;1.50;;
55800;SDS011;41730;51.960;20.158;2023-08-12T13:43:04;3.80;;;1.30;;
55800;SDS011;41730;51.960;20.158;2023-08-12T13:45:36;4.00;;;1.60;;
55800;SDS011;41730;51.960;20.158;2023-08-12T13:48:11;4.50;;;1.40;;
55800;SDS011;41730;51.960;20.158;2023-08-12T13:50:46;2.30;;;1.20;;
55800;SDS011;41730;51.960;20.158;2023-08-12T13:53:23;4.90;;;1.50;;
55800;SDS011;41730;51.960;20.158;2023-08-12T13:56:03;3.70;;;1.50;;
55800;SDS011;41730;51.960;20.158;2023-08-12T13:58:39;2.50;;;1.30;;
55800;SDS011;41730;51.960;20.158;2023-08-12T14:01:15;3.30;;;1.40;;
55800;SDS011;41730;51.960;20.158;2023-08-12T14:03:55;2.20;;;1.20;;
55800;SDS011;41730;51.960;20.158;2023-08-12T14:06:33;2.70;;;1.40;;
55800;SDS011;41730;51.960;20.158;2023-08-12T14:09:05;4.10;;;1.40;;
55800;SDS011;41730;51.960;20.158;2023-08-12T14:11:40;3.40;;;1.40;;
55800;SDS011;41730;51.960;20.158;2023-08-12T14:14:12;5.90;;;1.60;;
55800;SDS011;41730;51.960;20.158;2023-08-12T14:16:45;2.60;;;1.30;;
55800;SDS011;41730;51.960;20.158;2023-08-12T14:19:18;2.70;;;1.30;;
55800;SDS011;41730;51.960;20.158;2023-08-12T14:21:51;3.90;;;1.20;;
55800;SDS011;41730;51.960;20.158;2023-08-12T14:24:24;2.90;;;1.50;;
55800;SDS011;41730;51.960;20.158;2023-08-12T14:29:28;3.30;;;1.20;;
55800;SDS011;41730;51.960;20.158;2023-08-12T14:32:00;4.90;;;1.30;;
55800;SDS011;41730;51.960;20.158;2023-08-12T14:34:33;3.70;;;1.40;;
55800;SDS011;41730;51.960;20.158;2023-08-12T14:37:05;5.20;;;1.40;;
55800;SDS011;41730;51.960;20.158;2023-08-12T14:39:42;2.90;;;1.30;;
55800;SDS011;41730;51.960;20.158;2023-08-12T14:42:15;3.10;;;1.50;;
55800;SDS011;41730;51.960;20.158;2023-08-12T14:44:47;4.60;;;1.30;;
55800;SDS011;41730;51.960;20.158;2023-08-12T14:47:20;4.50;;;1.50;;
55800;SDS011;41730;51.960;20.158;2023-08-12T14:49:52;2.20;;;1.40;;
55800;SDS011;41730;51.960;20.158;2023-08-12T14:52:25;4.60;;;1.50;;
55800;SDS011;41730;51.960;20.158;2023-08-12T14:54:58;4.60;;;1.50;;
55800;SDS011;41730;51.960;20.158;2023-08-12T14:57:29;3.40;;;1.30;;
55800;SDS011;41730;51.960;20.158;2023-08-12T15:00:05;3.50;;;1.50;;
55800;SDS011;41730;51.960;20.158;2023-08-12T15:02:40;5.10;;;1.70;;
55800;SDS011;41730;51.960;20.158;2023-08-12T15:05:12;3.00;;;1.40;;
55800;SDS011;41730;51.960;20.158;2023-08-12T15:07:44;4.10;;;1.20;;
55800;SDS011;41730;51.960;20.158;2023-08-12T15:10:17;3.50;;;1.40;;
55800;SDS011;41730;51.960;20.158;2023-08-12T15:12:48;4.90;;;1.50;;
55800;SDS011;41730;51.960;20.158;2023-08-12T15:15:20;4.00;;;1.40;;